»·PEaware :: N172MT L77-L88

N172MT :: L77-L88

FLIGHT INFORMATION

Flight Status: Arrived
Operator: Privately registered:
United States
More flights under this callsign
Pilot: Matthew T. (14159)
Aircraft: CESSNA 172 SKYHAWK
(C172)
More flights by this aircraft type
Origin: L77 Chiriaco Summit
United States
Destination: L88 New Cuyama
United States
More flights between these airports :: More routes between these airports
Route:
File this flight plan on PilotEdge
Remarks:
Altitude:
(Current/Filed)
6,500ft
Speed:
(Current/Filed)
110kts
Departed: 12-Feb-24 08:05 PM
Arrived: 12-Feb-24 10:03 PM
Distance/Time
Traveled:
212nm/1:57
Distance/Time
To Go:
Arrived

Flight Plot

Page will automatically refresh every two minutes.


Map Options




Map Legend


Flown Route
Filed Route
Departure Airport
Arrival Airport
Navaid (VOR, NDB)
Fix

Horizontal Profiles

Position Reports

Time Latitude Longitude Heading Altitude Ground
Speed
12-Feb-24 19:52 33.661869 -115.718633 170 1721ft 0kts
12-Feb-24 19:53 33.661869 -115.718633 170 1721ft 0kts
12-Feb-24 19:54 33.661869 -115.718633 170 1721ft 0kts
12-Feb-24 19:55 33.661869 -115.718633 170 1721ft 0kts
12-Feb-24 19:56 33.661869 -115.718633 170 1721ft 0kts
12-Feb-24 19:57 33.661988 -115.719590 337 1721ft 0kts
12-Feb-24 19:58 33.661988 -115.719590 337 1721ft 0kts
12-Feb-24 19:59 33.661988 -115.719590 337 1721ft 0kts
12-Feb-24 20:00 33.661988 -115.719590 337 1721ft 0kts
12-Feb-24 20:01 33.663250 -115.719751 44 1725ft 11kts
12-Feb-24 20:02 33.664920 -115.709958 79 1708ft 38kts
12-Feb-24 20:03 33.665850 -115.704132 256 1698ft 0kts
12-Feb-24 20:04 33.663309 -115.719686 260 1921ft 83kts
12-Feb-24 20:05 33.661173 -115.749709 271 2611ft 95kts
12-Feb-24 20:06 33.662608 -115.780947 274 3393ft 91kts
12-Feb-24 20:07 33.661771 -115.811978 264 3914ft 97kts
12-Feb-24 20:08 33.663329 -115.845362 279 4496ft 97kts
12-Feb-24 20:09 33.662055 -115.879027 255 4689ft 122kts
12-Feb-24 20:10 33.669775 -115.912343 292 5396ft 96kts
12-Feb-24 20:11 33.679917 -115.940253 289 6085ft 89kts
12-Feb-24 20:12 33.688694 -115.969144 294 6499ft 104kts
12-Feb-24 20:13 33.700237 -116.005939 296 6558ft 122kts
12-Feb-24 20:14 33.720556 -116.039872 305 6536ft 127kts
12-Feb-24 20:15 33.739908 -116.075130 305 6554ft 128kts
12-Feb-24 20:16 33.759539 -116.111219 303 6546ft 127kts
12-Feb-24 20:17 33.777654 -116.145267 306 6528ft 117kts
12-Feb-24 20:18 33.795925 -116.177296 306 6484ft 117kts
12-Feb-24 20:19 33.817644 -116.205140 318 6488ft 114kts
12-Feb-24 20:20 33.838599 -116.232289 296 6504ft 113kts
12-Feb-24 20:21 33.853168 -116.267268 304 6434ft 115kts
12-Feb-24 20:22 33.871578 -116.297967 307 6470ft 112kts
12-Feb-24 20:23 33.890188 -116.329104 306 6449ft 114kts
12-Feb-24 20:24 33.908910 -116.360011 306 6448ft 114kts
12-Feb-24 20:25 33.927523 -116.390381 308 6478ft 115kts
12-Feb-24 20:26 33.948667 -116.419120 312 6432ft 116kts
12-Feb-24 20:27 33.968773 -116.448640 309 6477ft 112kts
12-Feb-24 20:28 33.986532 -116.479699 272 6413ft 116kts
12-Feb-24 20:29 33.984572 -116.517794 266 6453ft 114kts
12-Feb-24 20:30 33.982829 -116.555554 269 6496ft 115kts
12-Feb-24 20:31 33.980976 -116.593619 270 6516ft 114kts
12-Feb-24 20:32 33.975836 -116.631584 251 6531ft 114kts
12-Feb-24 20:33 33.970531 -116.668710 264 6509ft 110kts
12-Feb-24 20:34 33.969882 -116.703714 274 6514ft 102kts
12-Feb-24 20:35 33.972252 -116.737712 274 6512ft 101kts
12-Feb-24 20:36 33.975224 -116.772216 283 6510ft 104kts
12-Feb-24 20:37 33.981463 -116.806104 282 6496ft 103kts
12-Feb-24 20:38 33.987608 -116.840008 282 6498ft 104kts
12-Feb-24 20:39 33.993534 -116.873500 282 6517ft 101kts
12-Feb-24 20:40 34.005283 -116.904745 296 6522ft 104kts
12-Feb-24 20:41 34.017970 -116.936727 295 6532ft 108kts
12-Feb-24 20:42 34.035063 -116.967901 303 6534ft 115kts
12-Feb-24 20:43 34.052097 -116.999431 303 6521ft 110kts
12-Feb-24 20:44 34.068555 -117.030130 303 6523ft 108kts
12-Feb-24 20:45 34.083833 -117.061730 298 6524ft 110kts
12-Feb-24 20:47 34.097999 -117.094953 298 6525ft 111kts
12-Feb-24 20:48 34.111920 -117.127735 298 6525ft 109kts
12-Feb-24 20:49 34.125572 -117.160177 297 6524ft 108kts
12-Feb-24 20:50 34.139089 -117.192847 297 6520ft 108kts
12-Feb-24 20:51 34.152324 -117.225548 297 6524ft 109kts
12-Feb-24 20:52 34.165479 -117.258713 297 6523ft 109kts
12-Feb-24 20:53 34.178386 -117.291756 297 6521ft 109kts
12-Feb-24 20:54 34.191429 -117.325398 297 6518ft 110kts
12-Feb-24 20:55 34.204367 -117.359079 297 6522ft 111kts
12-Feb-24 20:56 34.217421 -117.393187 301 6521ft 111kts
12-Feb-24 20:57 34.237158 -117.421622 316 6528ft 111kts
12-Feb-24 20:58 34.260627 -117.446133 321 6524ft 111kts
12-Feb-24 20:59 34.283841 -117.470192 321 6521ft 110kts
12-Feb-24 21:00 34.307155 -117.494560 321 6522ft 110kts
12-Feb-24 21:01 34.329831 -117.518571 321 6528ft 105kts
12-Feb-24 21:02 34.351272 -117.541657 321 6526ft 104kts
12-Feb-24 21:03 34.373605 -117.565560 321 6562ft 109kts
12-Feb-24 21:04 34.396226 -117.589792 321 6561ft 109kts
12-Feb-24 21:05 34.418966 -117.614274 320 6566ft 108kts
12-Feb-24 21:06 34.437123 -117.641920 285 6559ft 109kts
12-Feb-24 21:07 34.443701 -117.678116 283 6564ft 111kts
12-Feb-24 21:08 34.450201 -117.714866 283 6565ft 112kts
12-Feb-24 21:08 34.455677 -117.746015 283 6560ft 112kts
12-Feb-24 21:09 34.462238 -117.783310 283 6528ft 114kts
12-Feb-24 21:11 34.469805 -117.826974 283 6514ft 113kts
12-Feb-24 21:12 34.476105 -117.864016 282 6529ft 112kts
12-Feb-24 21:13 34.482234 -117.901022 283 6526ft 111kts
12-Feb-24 21:13 34.487104 -117.931287 282 6524ft 108kts
12-Feb-24 21:14 34.492808 -117.967253 282 6527ft 109kts
12-Feb-24 21:15 34.498676 -118.004072 282 6538ft 113kts
12-Feb-24 21:16 34.509147 -118.039868 295 6530ft 111kts
12-Feb-24 21:18 34.525294 -118.079104 296 6532ft 112kts
12-Feb-24 21:18 34.534244 -118.108288 289 6530ft 111kts
12-Feb-24 21:19 34.543496 -118.144468 287 6534ft 113kts
12-Feb-24 21:20 34.552275 -118.181600 287 6534ft 114kts
12-Feb-24 21:21 34.560958 -118.218918 287 6528ft 115kts
12-Feb-24 21:22 34.569514 -118.256503 287 6533ft 115kts
12-Feb-24 21:23 34.577815 -118.293694 287 6538ft 114kts
12-Feb-24 21:24 34.585984 -118.330808 287 6537ft 114kts
12-Feb-24 21:25 34.594188 -118.369192 287 6542ft 121kts
12-Feb-24 21:26 34.602536 -118.408834 287 6541ft 121kts
12-Feb-24 21:27 34.610691 -118.448436 286 6530ft 118kts
12-Feb-24 21:28 34.618749 -118.487487 286 6524ft 119kts
12-Feb-24 21:29 34.626785 -118.526337 286 6516ft 117kts
12-Feb-24 21:30 34.634573 -118.563863 286 6510ft 114kts
12-Feb-24 21:31 34.642453 -118.601942 286 6517ft 119kts
12-Feb-24 21:32 34.650634 -118.641556 286 6518ft 119kts
12-Feb-24 21:33 34.658847 -118.680832 286 6502ft 118kts
12-Feb-24 21:34 34.666727 -118.719112 285 6495ft 116kts
12-Feb-24 21:35 34.673721 -118.757510 282 6738ft 113kts
12-Feb-24 21:36 34.680656 -118.793927 288 7338ft 104kts
12-Feb-24 21:37 34.684126 -118.827652 278 7984ft 94kts
12-Feb-24 21:38 34.686566 -118.861059 277 8445ft 103kts
12-Feb-24 21:39 34.692232 -118.899837 283 8466ft 123kts
12-Feb-24 21:40 34.699589 -118.940663 278 8450ft 123kts
12-Feb-24 21:41 34.704100 -118.982364 278 8451ft 125kts
12-Feb-24 21:42 34.708586 -119.024033 278 8451ft 123kts
12-Feb-24 21:43 34.713042 -119.065656 278 8452ft 123kts
12-Feb-24 21:44 34.717364 -119.107039 277 8479ft 122kts
12-Feb-24 21:45 34.721623 -119.148164 277 8481ft 122kts
12-Feb-24 21:46 34.725866 -119.189454 277 8488ft 123kts
12-Feb-24 21:47 34.730075 -119.230905 277 8495ft 124kts
12-Feb-24 21:48 34.739481 -119.269739 310 8486ft 122kts
12-Feb-24 21:49 34.761769 -119.301296 310 8495ft 123kts
12-Feb-24 21:50 34.783651 -119.332074 309 8398ft 113kts
12-Feb-24 21:51 34.803429 -119.362109 307 7944ft 115kts
12-Feb-24 21:52 34.824192 -119.392703 308 7383ft 121kts
12-Feb-24 21:53 34.843128 -119.424456 304 6914ft 111kts
12-Feb-24 21:54 34.861234 -119.454473 303 6341ft 109kts
12-Feb-24 21:55 34.878773 -119.483892 306 5434ft 107kts
12-Feb-24 21:56 34.894357 -119.513885 300 4784ft 108kts
12-Feb-24 21:57 34.909330 -119.545144 299 4276ft 101kts
12-Feb-24 21:58 34.922693 -119.575716 293 3917ft 103kts
12-Feb-24 21:59 34.936483 -119.609276 292 3490ft 105kts
12-Feb-24 22:00 34.936222 -119.640028 252 3127ft 93kts
12-Feb-24 22:01 34.933750 -119.669964 287 2656ft 80kts
12-Feb-24 22:02 34.941716 -119.689887 297 2207ft 30kts
12-Feb-24 22:03 34.942633 -119.690272 107 2207ft 0kts
12-Feb-24 22:04 34.942633 -119.690272 107 2207ft 0kts
12-Feb-24 22:05 34.942633 -119.690272 107 2207ft 0kts
12-Feb-24 22:06 34.942633 -119.690272 107 2207ft 0kts
12-Feb-24 22:07 34.942633 -119.690272 107 2208ft 0kts
12-Feb-24 22:08 34.942633 -119.690272 107 2208ft 0kts

Navigation Log

Ident Type
Flight plan parsing failed, navigation log unavailable